createdAt,value
2022-08-03T00:01:28.510Z,4.10
2022-08-03T00:03:55.248Z,3.50
2022-08-03T00:06:21.780Z,4.00
2022-08-03T00:08:48.358Z,4.40
2022-08-03T00:11:14.877Z,4.13
2022-08-03T00:13:41.439Z,4.40
2022-08-03T00:16:08.486Z,4.87
2022-08-03T00:18:35.037Z,4.27
2022-08-03T00:21:03.894Z,4.50
2022-08-03T00:23:51.468Z,4.03
2022-08-03T00:26:17.051Z,4.23
2022-08-03T00:28:43.651Z,4.87
2022-08-03T00:31:13.457Z,4.80
2022-08-03T00:33:58.348Z,4.30
2022-08-03T00:36:27.554Z,4.77
2022-08-03T00:38:54.401Z,4.70
2022-08-03T00:41:21.151Z,4.60
2022-08-03T00:43:47.779Z,4.50
2022-08-03T00:46:17.729Z,4.60
2022-08-03T00:48:49.507Z,4.90
2022-08-03T00:51:16.359Z,5.20
2022-08-03T00:53:43.528Z,4.90
2022-08-03T00:56:14.072Z,5.20
2022-08-03T00:58:40.756Z,5.13
2022-08-03T01:01:07.467Z,5.57
2022-08-03T01:03:34.427Z,5.27
2022-08-03T01:06:12.828Z,5.60
2022-08-03T01:08:56.835Z,5.23
2022-08-03T01:11:59.946Z,5.50
2022-08-03T01:14:35.997Z,5.20
2022-08-03T01:17:13.060Z,4.80
2022-08-03T01:19:45.660Z,5.77
2022-08-03T01:22:26.397Z,5.50
2022-08-03T01:25:24.080Z,5.27
2022-08-03T01:28:19.879Z,5.87
2022-08-03T01:30:47.254Z,6.40
2022-08-03T01:33:24.182Z,5.30
2022-08-03T01:35:58.919Z,5.20
2022-08-03T01:38:30.863Z,5.40
2022-08-03T01:40:58.439Z,6.07
2022-08-03T01:44:26.898Z,6.70
2022-08-03T01:46:18.916Z,6.10
2022-08-03T01:48:47.387Z,7.20
2022-08-03T01:51:18.061Z,6.10
2022-08-03T01:53:45.398Z,5.60
2022-08-03T01:56:13.920Z,6.23
2022-08-03T01:58:42.071Z,6.40
2022-08-03T02:01:10.020Z,6.80
2022-08-03T02:04:00.431Z,5.93
2022-08-03T02:07:00.215Z,5.63
2022-08-03T02:09:17.563Z,5.60
2022-08-03T02:11:46.626Z,6.20
2022-08-03T02:14:14.595Z,5.40
2022-08-03T02:16:43.227Z,5.60
2022-08-03T02:19:11.503Z,6.47
2022-08-03T02:21:56.849Z,6.63
2022-08-03T02:24:25.569Z,6.23
2022-08-03T02:26:55.742Z,6.60
2022-08-03T02:29:38.799Z,6.10
2022-08-03T02:32:12.640Z,6.10
2022-08-03T02:34:41.986Z,6.43
2022-08-03T02:37:10.319Z,6.37
2022-08-03T02:39:39.914Z,7.03
2022-08-03T02:42:09.546Z,7.33
2022-08-03T02:44:40.298Z,6.00
2022-08-03T02:47:10.793Z,6.33
2022-08-03T02:49:51.595Z,6.87
2022-08-03T02:52:25.334Z,6.30
2022-08-03T02:54:54.959Z,6.30
2022-08-03T02:57:23.553Z,6.40
2022-08-03T02:59:52.125Z,6.27
2022-08-03T03:02:20.111Z,7.20
2022-08-03T03:05:52.602Z,6.50
2022-08-03T03:07:51.440Z,6.53
2022-08-03T03:10:22.594Z,5.90
2022-08-03T03:12:52.663Z,6.37
2022-08-03T03:15:19.410Z,6.90
2022-08-03T03:17:48.199Z,6.93
2022-08-03T03:20:15.625Z,6.57
2022-08-03T03:22:59.587Z,6.90
2022-08-03T03:25:26.677Z,6.93
2022-08-03T03:27:54.336Z,6.70
2022-08-03T03:30:21.447Z,6.10
2022-08-03T03:32:48.432Z,6.33
2022-08-03T03:35:16.764Z,7.10
2022-08-03T03:37:43.333Z,7.03
2022-08-03T03:40:10.599Z,6.60
2022-08-03T03:42:38.426Z,7.10
2022-08-03T03:45:08.849Z,6.57
2022-08-03T03:47:35.803Z,6.10
2022-08-03T03:50:04.573Z,6.30
2022-08-03T03:52:32.252Z,6.10
2022-08-03T03:55:01.281Z,6.43
2022-08-03T03:57:29.461Z,6.10
2022-08-03T03:59:56.569Z,7.57
2022-08-03T04:02:23.122Z,6.10
2022-08-03T04:05:08.432Z,6.13
2022-08-03T04:08:10.805Z,5.90
2022-08-03T04:11:00.384Z,6.30
2022-08-03T04:13:35.220Z,6.20
2022-08-03T04:16:03.091Z,7.00
2022-08-03T04:18:32.489Z,6.70
2022-08-03T04:21:03.918Z,7.73
2022-08-03T04:23:34.795Z,7.10
2022-08-03T04:26:03.549Z,7.73
2022-08-03T04:28:32.393Z,7.37
2022-08-03T04:31:01.332Z,7.93
2022-08-03T04:33:31.413Z,7.70
2022-08-03T04:36:02.895Z,8.73
2022-08-03T04:38:33.190Z,8.27
2022-08-03T04:41:01.457Z,7.90
2022-08-03T04:43:29.005Z,8.27
2022-08-03T04:45:56.452Z,6.73
2022-08-03T04:48:23.043Z,7.80
2022-08-03T04:50:49.811Z,7.80
2022-08-03T04:53:17.834Z,7.00
2022-08-03T04:55:44.749Z,6.20
2022-08-03T04:58:12.704Z,7.10
2022-08-03T05:00:39.685Z,6.47
2022-08-03T05:03:23.898Z,6.37
2022-08-03T05:05:52.969Z,6.20
2022-08-03T05:08:20.370Z,6.33
2022-08-03T05:10:54.748Z,5.63
2022-08-03T05:13:21.447Z,6.13
2022-08-03T05:15:49.200Z,5.67
2022-08-03T05:18:15.736Z,5.60
2022-08-03T05:20:42.354Z,6.00
2022-08-03T05:23:08.896Z,5.77
2022-08-03T05:25:35.485Z,5.37
2022-08-03T05:28:02.071Z,5.10
2022-08-03T05:30:33.873Z,3.87
2022-08-03T05:33:02.947Z,3.90
2022-08-03T05:36:00.608Z,4.17
2022-08-03T05:38:23.693Z,3.90
2022-08-03T05:40:57.536Z,3.00
2022-08-03T05:43:41.875Z,3.10
2022-08-03T05:46:12.157Z,3.70
2022-08-03T05:48:39.926Z,2.90
2022-08-03T05:51:07.750Z,3.00
2022-08-03T05:53:34.550Z,3.47
2022-08-03T05:56:13.283Z,2.88
2022-08-03T05:58:52.376Z,2.55
2022-08-03T06:01:21.701Z,1.80
2022-08-03T06:03:49.666Z,2.67
2022-08-03T06:06:16.874Z,3.47
2022-08-03T06:08:44.698Z,2.33
2022-08-03T06:11:12.369Z,2.55
2022-08-03T06:13:38.955Z,2.42
2022-08-03T06:16:05.916Z,2.10
2022-08-03T06:18:32.452Z,2.15
2022-08-03T06:21:00.238Z,1.95
2022-08-03T06:23:55.102Z,2.15
2022-08-03T06:26:24.016Z,1.95
2022-08-03T06:28:52.997Z,2.47
2022-08-03T06:31:23.740Z,2.17
2022-08-03T06:34:33.595Z,2.05
2022-08-03T06:36:37.798Z,2.20
2022-08-03T06:39:06.257Z,1.85
2022-08-03T06:41:38.108Z,1.88
2022-08-03T06:44:11.871Z,1.55
2022-08-03T06:46:38.408Z,1.70
2022-08-03T06:49:05.513Z,1.90
2022-08-03T06:52:04.086Z,1.83
2022-08-03T06:54:19.046Z,1.45
2022-08-03T06:56:45.569Z,1.40
2022-08-03T07:00:10.769Z,2.05
2022-08-03T07:01:58.777Z,1.23
2022-08-03T07:04:25.379Z,1.67
2022-08-03T07:06:52.354Z,1.60
2022-08-03T07:09:18.949Z,1.77
2022-08-03T07:11:45.458Z,2.55
2022-08-03T07:14:11.997Z,1.58
2022-08-03T07:16:38.528Z,1.40
2022-08-03T07:19:05.408Z,1.48
2022-08-03T07:21:31.939Z,1.60
2022-08-03T07:23:58.461Z,1.35
2022-08-03T07:26:25.006Z,1.45
2022-08-03T07:28:51.533Z,1.48
2022-08-03T07:31:18.075Z,1.40
2022-08-03T07:33:44.611Z,1.60
2022-08-03T07:36:11.165Z,1.42
2022-08-03T07:38:37.742Z,1.35
2022-08-03T07:41:04.362Z,1.30
2022-08-03T07:43:30.915Z,1.30
2022-08-03T07:45:57.494Z,1.42
2022-08-03T07:48:24.021Z,1.35
2022-08-03T07:50:50.742Z,1.30
2022-08-03T07:53:17.314Z,1.58
2022-08-03T07:55:43.846Z,1.45
2022-08-03T07:58:12.460Z,1.70
2022-08-03T08:00:39.418Z,1.70
2022-08-03T08:03:06.119Z,2.00
2022-08-03T08:05:32.988Z,2.30
2022-08-03T08:08:00.656Z,1.35
2022-08-03T08:10:27.886Z,1.42
2022-08-03T08:12:55.108Z,1.30
2022-08-03T08:15:21.866Z,1.88
2022-08-03T08:17:51.942Z,1.40
2022-08-03T08:20:27.794Z,1.38
2022-08-03T08:23:02.717Z,2.03
2022-08-03T08:25:31.315Z,1.38
2022-08-03T08:28:29.546Z,1.67
2022-08-03T08:30:48.767Z,1.67
2022-08-03T08:33:22.536Z,1.63
2022-08-03T08:35:51.197Z,1.50
2022-08-03T08:38:17.762Z,1.45
2022-08-03T08:40:44.287Z,1.45
2022-08-03T08:43:10.796Z,1.27
2022-08-03T08:45:37.609Z,1.30
2022-08-03T08:48:08.334Z,2.22
2022-08-03T08:50:37.457Z,2.72
2022-08-03T08:53:09.833Z,1.40
2022-08-03T08:55:58.545Z,1.85
2022-08-03T08:58:31.203Z,1.35
2022-08-03T09:00:57.821Z,1.65
2022-08-03T09:03:30.262Z,3.05
2022-08-03T09:05:59.630Z,1.60
2022-08-03T09:08:26.465Z,1.90
2022-08-03T09:10:53.003Z,1.45
2022-08-03T09:13:19.676Z,1.40
2022-08-03T09:16:00.878Z,2.10
2022-08-03T09:18:32.851Z,1.50
2022-08-03T09:21:34.501Z,1.67
2022-08-03T09:24:05.392Z,1.20
2022-08-03T09:26:35.393Z,1.75
2022-08-03T09:29:11.168Z,2.28
2022-08-03T09:31:44.414Z,1.35
2022-08-03T09:34:14.525Z,1.88
2022-08-03T09:36:46.509Z,1.80
2022-08-03T09:39:16.913Z,1.83
2022-08-03T09:41:47.199Z,1.05
2022-08-03T09:44:24.143Z,1.20
2022-08-03T09:46:56.198Z,1.35
2022-08-03T09:49:23.296Z,1.67
2022-08-03T09:52:32.116Z,1.40
2022-08-03T09:54:37.007Z,1.70
2022-08-03T09:57:03.705Z,1.55
2022-08-03T09:59:32.205Z,1.70
2022-08-03T10:02:00.583Z,2.28
2022-08-03T10:04:28.318Z,1.80
2022-08-03T10:07:04.269Z,1.90
2022-08-03T10:09:30.902Z,2.00
2022-08-03T10:11:57.786Z,1.55
2022-08-03T10:14:26.425Z,2.45
2022-08-03T10:16:52.963Z,1.65
2022-08-03T10:19:19.608Z,1.95
2022-08-03T10:21:56.163Z,1.45
2022-08-03T10:24:28.542Z,1.42
2022-08-03T10:27:07.231Z,1.52
2022-08-03T10:29:38.826Z,1.73
2022-08-03T10:32:25.918Z,1.60
2022-08-03T10:35:00.211Z,1.42
2022-08-03T10:37:32.101Z,1.40
2022-08-03T10:40:00.653Z,1.48
2022-08-03T10:42:31.235Z,1.73
2022-08-03T10:45:04.980Z,1.50
2022-08-03T10:47:32.986Z,1.85
2022-08-03T10:50:00.465Z,1.60
2022-08-03T10:52:32.927Z,1.88
2022-08-03T10:55:20.665Z,1.65
2022-08-03T10:57:49.718Z,1.60
2022-08-03T11:00:21.494Z,1.95
2022-08-03T11:03:10.909Z,1.40
2022-08-03T11:05:40.581Z,1.50
2022-08-03T11:08:25.319Z,1.67
2022-08-03T11:10:54.793Z,1.70
2022-08-03T11:13:24.903Z,1.50
2022-08-03T11:15:54.085Z,1.70
2022-08-03T11:18:29.676Z,1.40
2022-08-03T11:20:58.662Z,1.85
2022-08-03T11:24:05.253Z,2.28
2022-08-03T11:26:29.440Z,1.50
2022-08-03T11:29:29.018Z,1.67
2022-08-03T11:31:55.606Z,1.85
2022-08-03T11:34:24.327Z,1.50
2022-08-03T11:37:24.501Z,1.83
2022-08-03T11:39:54.618Z,1.48
2022-08-03T11:42:25.081Z,2.00
2022-08-03T11:44:56.666Z,1.67
2022-08-03T11:47:26.800Z,2.10
2022-08-03T11:49:59.136Z,1.70
2022-08-03T11:52:28.767Z,1.67
2022-08-03T11:54:57.018Z,1.60
2022-08-03T11:59:16.665Z,1.77
2022-08-03T12:00:26.048Z,1.80
2022-08-03T12:02:56.687Z,1.70
2022-08-03T12:05:52.309Z,1.60
2022-08-03T12:08:33.508Z,1.95
2022-08-03T12:11:05.718Z,2.05
2022-08-03T12:14:45.748Z,1.33
2022-08-03T12:16:31.804Z,1.83
2022-08-03T12:19:06.568Z,1.48
2022-08-03T12:21:34.181Z,1.20
2022-08-03T12:24:04.833Z,1.77
2022-08-03T12:26:44.247Z,1.60
2022-08-03T12:29:22.970Z,1.42
2022-08-03T12:31:49.593Z,1.70
2022-08-03T12:34:16.413Z,1.63
2022-08-03T12:36:53.746Z,1.48
2022-08-03T12:39:25.133Z,1.52
2022-08-03T12:41:55.477Z,1.50
2022-08-03T12:44:36.142Z,1.85
2022-08-03T12:47:04.447Z,1.98
2022-08-03T12:49:52.045Z,2.03
2022-08-03T12:52:20.353Z,1.73
2022-08-03T12:54:57.979Z,1.42
2022-08-03T12:57:25.079Z,1.55
2022-08-03T12:59:55.770Z,1.50
2022-08-03T13:02:24.589Z,1.70
2022-08-03T13:04:53.399Z,1.38
2022-08-03T13:07:20.593Z,1.65
2022-08-03T13:09:55.125Z,1.75
2022-08-03T13:12:25.036Z,1.73
2022-08-03T13:14:55.545Z,1.63
2022-08-03T13:17:22.899Z,1.98
2022-08-03T13:19:50.246Z,1.80
2022-08-03T13:22:18.392Z,1.88
2022-08-03T13:24:47.389Z,1.77
2022-08-03T13:28:11.075Z,1.75
2022-08-03T13:30:01.146Z,1.83
2022-08-03T13:32:27.870Z,1.35
2022-08-03T13:34:54.452Z,1.35
2022-08-03T13:37:21.698Z,1.67
2022-08-03T13:39:59.246Z,3.05
2022-08-03T13:42:32.219Z,1.90
2022-08-03T13:44:59.493Z,1.77
2022-08-03T13:47:26.550Z,1.60
2022-08-03T13:49:59.373Z,1.92
2022-08-03T13:52:34.164Z,1.58
2022-08-03T13:55:03.588Z,2.03
2022-08-03T13:58:02.211Z,2.30
2022-08-03T14:00:27.680Z,1.45
2022-08-03T14:03:02.940Z,2.05
2022-08-03T14:05:31.982Z,1.95
2022-08-03T14:08:04.594Z,2.03
2022-08-03T14:10:33.362Z,1.52
2022-08-03T14:13:00.405Z,1.50
2022-08-03T14:15:28.472Z,2.10
2022-08-03T14:17:59.067Z,1.90
2022-08-03T14:20:36.775Z,2.00
2022-08-03T14:23:06.709Z,1.65
2022-08-03T14:25:44.464Z,1.83
2022-08-03T14:28:18.843Z,1.90
2022-08-03T14:30:45.650Z,1.58
2022-08-03T14:33:12.179Z,2.47
2022-08-03T14:35:39.159Z,2.53
2022-08-03T14:38:06.372Z,1.60
2022-08-03T14:40:32.954Z,2.08
2022-08-03T14:42:59.488Z,1.90
2022-08-03T14:45:26.071Z,2.08
2022-08-03T14:50:33.158Z,1.85
2022-08-03T14:50:45.488Z,1.58
2022-08-03T14:53:17.463Z,2.17
2022-08-03T14:55:49.666Z,1.98
2022-08-03T14:58:21.975Z,1.60
2022-08-03T15:00:50.422Z,2.28
2022-08-03T15:03:21.379Z,2.03
2022-08-03T15:05:47.969Z,1.55
2022-08-03T15:08:14.575Z,1.80
2022-08-03T15:10:44.849Z,1.80
2022-08-03T15:13:13.392Z,1.90
2022-08-03T15:15:40.344Z,1.65
2022-08-03T15:18:07.014Z,1.73
2022-08-03T15:20:43.872Z,1.73
2022-08-03T15:23:10.867Z,1.70
2022-08-03T15:26:28.551Z,1.90
2022-08-03T15:28:24.116Z,2.00
2022-08-03T15:30:53.657Z,2.35
2022-08-03T15:33:20.377Z,1.98
2022-08-03T15:35:47.969Z,2.13
2022-08-03T15:38:15.202Z,2.90
2022-08-03T15:40:42.384Z,2.05
2022-08-03T15:43:08.993Z,1.50
2022-08-03T15:45:36.879Z,1.95
2022-08-03T15:48:06.549Z,1.90
2022-08-03T15:50:33.101Z,2.30
2022-08-03T15:52:59.615Z,3.00
2022-08-03T15:55:26.249Z,2.17
2022-08-03T15:59:03.876Z,1.85
2022-08-03T16:00:40.518Z,2.70
2022-08-03T16:03:07.156Z,2.30
2022-08-03T16:05:33.882Z,2.50
2022-08-03T16:08:03.635Z,1.80
2022-08-03T16:10:31.886Z,1.50
2022-08-03T16:12:59.780Z,1.67
2022-08-03T16:15:26.327Z,2.40
2022-08-03T16:17:53.299Z,1.75
2022-08-03T16:20:29.710Z,1.95
2022-08-03T16:23:10.346Z,1.73
2022-08-03T16:25:41.803Z,1.70
2022-08-03T16:28:13.950Z,1.30
2022-08-03T16:30:43.561Z,1.60
2022-08-03T16:33:11.453Z,1.90
2022-08-03T16:35:43.697Z,1.60
2022-08-03T16:38:13.080Z,2.05
2022-08-03T16:40:42.101Z,1.73
2022-08-03T16:43:17.913Z,1.48
2022-08-03T16:45:48.990Z,1.55
2022-08-03T16:48:16.425Z,2.05
2022-08-03T16:50:44.102Z,1.40
2022-08-03T16:53:16.693Z,1.58
2022-08-03T16:55:53.960Z,2.00
2022-08-03T16:58:41.725Z,1.40
2022-08-03T17:01:21.913Z,1.40
2022-08-03T17:04:02.070Z,1.50
2022-08-03T17:06:35.865Z,1.67
2022-08-03T17:09:10.476Z,1.45
2022-08-03T17:11:43.973Z,1.45
2022-08-03T17:14:15.002Z,1.60
2022-08-03T17:16:52.414Z,1.70
2022-08-03T17:19:23.303Z,1.58
2022-08-03T17:21:56.944Z,1.52
2022-08-03T17:24:32.618Z,1.38
2022-08-03T17:27:08.913Z,1.75
2022-08-03T17:29:39.217Z,2.38
2022-08-03T17:32:18.128Z,1.98
2022-08-03T17:34:49.803Z,1.73
2022-08-03T17:37:27.147Z,1.83
2022-08-03T17:40:04.279Z,2.00
2022-08-03T17:42:33.243Z,2.08
2022-08-03T17:45:03.753Z,2.15
2022-08-03T17:47:42.880Z,1.90
2022-08-03T17:50:24.755Z,2.10
2022-08-03T17:53:07.496Z,1.63
2022-08-03T17:55:57.325Z,2.45
2022-08-03T17:58:42.059Z,2.08
2022-08-03T18:02:05.699Z,2.00
2022-08-03T18:04:30.019Z,3.20
2022-08-03T18:06:59.106Z,1.98
2022-08-03T18:10:06.067Z,2.72
2022-08-03T18:12:27.169Z,2.05
2022-08-03T18:15:01.302Z,2.13
2022-08-03T18:17:55.655Z,1.77
2022-08-03T18:20:34.437Z,1.48
2022-08-03T18:23:07.600Z,2.47
2022-08-03T18:25:45.632Z,2.38
2022-08-03T18:28:18.774Z,2.53
2022-08-03T18:30:53.716Z,1.77
2022-08-03T18:34:16.177Z,1.75
2022-08-03T18:36:21.711Z,2.22
2022-08-03T18:38:58.535Z,2.22
2022-08-03T18:41:33.714Z,2.97
2022-08-03T18:44:07.811Z,1.88
2022-08-03T18:47:15.958Z,2.10
2022-08-03T18:50:02.527Z,2.03
2022-08-03T18:52:52.735Z,2.20
2022-08-03T18:55:35.419Z,2.85
2022-08-03T18:58:17.795Z,2.80
2022-08-03T19:01:15.233Z,2.65
2022-08-03T19:04:03.905Z,2.15
2022-08-03T19:06:31.628Z,4.15
2022-08-03T19:09:09.538Z,2.97
2022-08-03T19:12:14.559Z,2.25
2022-08-03T19:14:42.463Z,2.15
2022-08-03T19:17:11.230Z,2.67
2022-08-03T19:19:44.569Z,2.08
2022-08-03T19:22:15.965Z,3.15
2022-08-03T19:24:45.872Z,2.63
2022-08-03T19:27:13.540Z,3.25
2022-08-03T19:29:58.797Z,2.72
2022-08-03T19:32:31.723Z,2.20
2022-08-03T19:35:00.131Z,2.53
2022-08-03T19:37:38.399Z,1.73
2022-08-03T19:40:10.776Z,3.47
2022-08-03T19:43:03.404Z,2.10
2022-08-03T19:45:52.664Z,1.90
2022-08-03T19:48:28.610Z,2.70
2022-08-03T19:51:02.335Z,2.60
2022-08-03T19:53:45.041Z,2.20
2022-08-03T19:56:14.213Z,2.70
2022-08-03T19:58:43.213Z,3.10
2022-08-03T20:01:21.588Z,2.13
2022-08-03T20:03:49.930Z,2.23
2022-08-03T20:06:21.492Z,2.67
2022-08-03T20:08:51.554Z,2.30
2022-08-03T20:11:19.903Z,2.30
2022-08-03T20:13:49.031Z,2.40
2022-08-03T20:16:15.923Z,2.17
2022-08-03T20:18:42.686Z,2.37
2022-08-03T20:21:15.350Z,2.20
2022-08-03T20:24:23.438Z,2.27
2022-08-03T20:26:53.527Z,3.27
2022-08-03T20:30:05.273Z,2.00
2022-08-03T20:32:15.316Z,2.37
2022-08-03T20:34:42.475Z,2.60
2022-08-03T20:37:12.057Z,2.53
2022-08-03T20:39:38.717Z,1.80
2022-08-03T20:42:07.256Z,2.10
2022-08-03T20:44:36.613Z,2.57
2022-08-03T20:47:10.191Z,2.43
2022-08-03T20:49:45.943Z,2.60
2022-08-03T20:52:18.386Z,2.60
2022-08-03T20:54:47.790Z,2.00
2022-08-03T20:57:16.366Z,2.10
2022-08-03T20:59:50.839Z,2.13
2022-08-03T21:02:30.038Z,2.20
2022-08-03T21:05:02.890Z,3.20
2022-08-03T21:08:05.813Z,2.60
2022-08-03T21:10:29.902Z,2.47
2022-08-03T21:13:15.480Z,2.80
2022-08-03T21:16:12.646Z,2.40
2022-08-03T21:18:38.005Z,2.97
2022-08-03T21:21:06.215Z,2.53
2022-08-03T21:23:48.874Z,1.97
2022-08-03T21:26:18.413Z,3.33
2022-08-03T21:28:47.317Z,2.60
2022-08-03T21:31:19.830Z,3.30
2022-08-03T21:34:05.188Z,2.90
2022-08-03T21:36:34.152Z,3.07
2022-08-03T21:39:02.389Z,2.17
2022-08-03T21:41:31.884Z,2.67
2022-08-03T21:43:59.498Z,2.67
2022-08-03T21:46:29.532Z,2.90
2022-08-03T21:50:07.502Z,2.60
2022-08-03T21:51:52.385Z,2.60
2022-08-03T21:54:22.456Z,2.83
2022-08-03T21:56:51.013Z,3.17
2022-08-03T21:59:19.714Z,2.90
2022-08-03T22:01:48.955Z,2.80
2022-08-03T22:04:50.315Z,3.40
2022-08-03T22:07:07.869Z,3.50
2022-08-03T22:09:36.013Z,4.00
2022-08-03T22:12:03.046Z,3.10
2022-08-03T22:14:32.388Z,4.00
2022-08-03T22:16:59.999Z,3.70
2022-08-03T22:19:26.563Z,3.87
2022-08-03T22:21:54.319Z,4.57
2022-08-03T22:24:23.902Z,4.20
2022-08-03T22:27:09.900Z,4.30
2022-08-03T22:29:39.636Z,4.20
2022-08-03T22:32:06.782Z,4.50
2022-08-03T22:34:33.534Z,5.27
2022-08-03T22:37:02.885Z,4.80
2022-08-03T22:39:30.093Z,4.93
2022-08-03T22:41:57.943Z,5.10
2022-08-03T22:44:25.470Z,5.47
2022-08-03T22:46:52.128Z,5.57
2022-08-03T22:49:19.471Z,6.13
2022-08-03T22:51:47.094Z,6.60
2022-08-03T22:54:14.353Z,6.43
2022-08-03T22:56:41.836Z,7.20
2022-08-03T22:59:40.390Z,6.80
2022-08-03T23:02:20.021Z,7.17
2022-08-03T23:04:51.572Z,7.07
2022-08-03T23:07:39.408Z,7.80
2022-08-03T23:10:12.050Z,8.30
2022-08-03T23:12:40.778Z,8.87
2022-08-03T23:15:10.401Z,10.30
2022-08-03T23:17:58.556Z,9.30
2022-08-03T23:20:26.852Z,10.43
2022-08-03T23:22:57.742Z,9.93
2022-08-03T23:25:25.285Z,10.40
2022-08-03T23:28:05.376Z,9.53
2022-08-03T23:30:34.696Z,9.20
2022-08-03T23:33:02.861Z,9.70
2022-08-03T23:36:29.668Z,10.30
2022-08-03T23:38:36.751Z,10.30
2022-08-03T23:41:04.775Z,10.20
2022-08-03T23:43:45.135Z,10.33
2022-08-03T23:46:21.756Z,10.67
2022-08-03T23:48:48.341Z,11.07
2022-08-03T23:51:50.894Z,10.30
2022-08-03T23:54:32.051Z,10.23
2022-08-03T23:57:09.216Z,11.00
2022-08-03T23:59:46.761Z,11.43
